Time;durP1;ratioP1;P1;durP2;ratioP2;P2;SDS_P1;SDS_P2;PMS_P1;PMS_P2;Temp;Humidity;BMP_temperature;BMP_pressure;BME280_temperature;BME280_humidity;BME280_pressure;Samples;Min_cycle;Max_cycle;Signal;HPM_P1;HPM_P2
2023/03/17 00:01:35;;;;;;;12.23;5.18;;;4.50;99.90;;;;;;5082412;28;20036;-62
2023/03/17 00:04:01;;;;;;;10.85;4.10;;;4.50;99.90;;;;;;5082885;28;20040;-60
2023/03/17 00:06:31;;;;;;;9.18;4.50;;;4.50;99.90;;;;;;5083500;28;20411;-59
2023/03/17 00:08:57;;;;;;;7.32;4.22;;;4.50;99.90;;;;;;5103613;28;20044;-63
2023/03/17 00:11:23;;;;;;;9.40;5.07;;;4.40;99.90;;;;;;5099843;28;20401;-59
2023/03/17 00:13:49;;;;;;;11.05;5.22;;;4.40;99.90;;;;;;5081396;28;20047;-61
2023/03/17 00:16:27;;;;;;;9.80;4.57;;;4.40;99.90;;;;;;5080851;28;20046;-60
2023/03/17 00:18:54;;;;;;;7.05;4.32;;;4.50;99.90;;;;;;5065184;28;20107;-63
2023/03/17 00:21:33;;;;;;;9.98;4.63;;;4.50;99.90;;;;;;5066043;28;20454;-64
2023/03/17 00:23:59;;;;;;;10.35;4.63;;;4.50;99.90;;;;;;5068466;28;20086;-63
2023/03/17 00:26:26;;;;;;;9.27;4.32;;;4.50;99.90;;;;;;5070089;28;20056;-61
2023/03/17 00:28:53;;;;;;;10.38;5.28;;;4.60;99.90;;;;;;5067432;28;20128;-63
2023/03/17 00:31:26;;;;;;;10.20;5.05;;;4.60;99.90;;;;;;5069402;28;20086;-63
2023/03/17 00:33:53;;;;;;;7.15;4.20;;;4.60;99.90;;;;;;5067432;28;20648;-63
2023/03/17 00:36:22;;;;;;;10.98;4.30;;;4.70;99.90;;;;;;5069007;28;20125;-61
2023/03/17 00:38:49;;;;;;;8.35;4.05;;;4.60;99.90;;;;;;5063709;28;20040;-63
2023/03/17 00:41:15;;;;;;;6.97;4.88;;;4.60;99.90;;;;;;5070006;28;20122;-62
2023/03/17 00:43:41;;;;;;;12.32;5.68;;;4.60;99.90;;;;;;5067742;28;20111;-62
2023/03/17 00:46:37;;;;;;;9.40;5.22;;;4.60;99.90;;;;;;5069726;28;20643;-60
2023/03/17 00:49:15;;;;;;;7.63;4.30;;;4.70;99.90;;;;;;5055715;28;20048;-63
2023/03/17 00:51:43;;;;;;;8.63;5.18;;;4.70;99.90;;;;;;5068834;28;20048;-60
2023/03/17 00:54:09;;;;;;;7.65;4.25;;;4.70;99.90;;;;;;5068980;28;20036;-61
2023/03/17 00:56:36;;;;;;;8.00;4.30;;;4.70;99.90;;;;;;5068991;28;20435;-61
2023/03/17 00:59:02;;;;;;;10.00;4.82;;;4.70;99.90;;;;;;5067183;28;20055;-62
2023/03/17 01:01:28;;;;;;;11.50;5.03;;;4.70;99.90;;;;;;5067876;28;20413;-61
2023/03/17 01:03:55;;;;;;;8.70;4.82;;;4.70;99.90;;;;;;5062954;28;20097;-62
2023/03/17 01:06:21;;;;;;;8.63;4.65;;;4.70;99.90;;;;;;5069416;28;20121;-56
2023/03/17 01:08:46;;;;;;;8.93;4.13;;;4.80;99.90;;;;;;5064930;28;20468;-62
2023/03/17 01:11:16;;;;;;;12.25;4.40;;;4.90;99.90;;;;;;5068550;28;20124;-62
2023/03/17 01:13:42;;;;;;;7.07;4.18;;;4.90;99.90;;;;;;5067435;28;20564;-62
2023/03/17 01:16:11;;;;;;;11.63;5.00;;;5.00;99.90;;;;;;5068792;28;20082;-61
2023/03/17 01:18:37;;;;;;;11.18;4.68;;;5.00;99.90;;;;;;5065582;28;20040;-62
2023/03/17 01:21:03;;;;;;;8.40;4.28;;;5.00;99.90;;;;;;5070038;28;20602;-61
2023/03/17 01:23:30;;;;;;;7.75;4.35;;;4.90;99.90;;;;;;5065703;28;20106;-59
2023/03/17 01:25:56;;;;;;;7.40;4.45;;;5.00;99.90;;;;;;5068997;28;20090;-59
2023/03/17 01:28:22;;;;;;;9.55;4.22;;;4.90;99.90;;;;;;5065293;28;20045;-62
2023/03/17 01:30:48;;;;;;;7.88;3.80;;;4.90;99.90;;;;;;5067283;28;20044;-61
2023/03/17 01:33:14;;;;;;;9.05;4.30;;;4.90;99.90;;;;;;5045299;28;20093;-60
2023/03/17 01:35:42;;;;;;;6.13;3.42;;;5.00;99.90;;;;;;5066497;28;20354;-61
2023/03/17 01:38:08;;;;;;;7.45;4.07;;;4.90;99.90;;;;;;5067136;28;20041;-63
2023/03/17 01:40:44;;;;;;;7.63;3.60;;;4.80;99.90;;;;;;5069596;28;20454;-62
2023/03/17 01:43:10;;;;;;;5.30;3.20;;;4.90;99.90;;;;;;5064868;28;20735;-60
2023/03/17 01:46:13;;;;;;;14.45;3.63;;;4.80;99.90;;;;;;5068383;28;20040;-64
2023/03/17 01:48:53;;;;;;;8.15;3.90;;;4.90;99.90;;;;;;5064563;28;20086;-62
2023/03/17 01:51:46;;;;;;;5.57;3.15;;;5.00;99.90;;;;;;5068682;28;20036;-62
2023/03/17 01:54:23;;;;;;;5.65;3.33;;;4.90;99.90;;;;;;5082890;28;20056;-60
2023/03/17 01:56:51;;;;;;;5.68;3.40;;;4.90;99.90;;;;;;5066777;28;20094;-62
2023/03/17 01:59:24;;;;;;;6.18;3.28;;;4.90;99.90;;;;;;5068347;28;20443;-63
2023/03/17 02:01:55;;;;;;;4.72;2.53;;;4.80;99.90;;;;;;5064934;28;20040;-61
2023/03/17 02:04:21;;;;;;;4.72;2.33;;;4.80;99.90;;;;;;5067016;28;20123;-60
2023/03/17 02:06:49;;;;;;;8.02;3.05;;;4.70;99.90;;;;;;5066608;28;20098;-60
2023/03/17 02:09:16;;;;;;;8.18;3.30;;;4.70;99.90;;;;;;5067387;28;20500;-63
2023/03/17 02:11:42;;;;;;;7.30;3.17;;;4.70;99.90;;;;;;5067793;28;20040;-61
2023/03/17 02:14:07;;;;;;;9.38;3.72;;;4.80;99.90;;;;;;5066025;28;20040;-63
2023/03/17 02:16:33;;;;;;;4.85;2.90;;;4.70;99.90;;;;;;5066310;28;20618;-63
2023/03/17 02:18:59;;;;;;;7.25;2.90;;;4.70;99.90;;;;;;5065857;28;20036;-63
2023/03/17 02:21:33;;;;;;;4.95;2.53;;;4.70;99.90;;;;;;5067916;28;20051;-61
2023/03/17 02:24:04;;;;;;;5.22;2.95;;;4.70;99.90;;;;;;5066375;28;20486;-63
2023/03/17 02:26:33;;;;;;;5.50;3.30;;;4.70;99.90;;;;;;5067783;28;20149;-63
2023/03/17 02:28:59;;;;;;;5.63;2.90;;;4.70;99.90;;;;;;5061646;28;20048;-63
2023/03/17 02:31:26;;;;;;;5.80;3.03;;;4.60;99.90;;;;;;5066404;28;20075;-62
2023/03/17 02:33:52;;;;;;;4.78;2.65;;;4.60;99.90;;;;;;5066902;28;20047;-62
2023/03/17 02:36:19;;;;;;;4.47;2.72;;;4.60;99.90;;;;;;5068064;28;20093;-63
2023/03/17 02:38:44;;;;;;;4.50;2.72;;;4.50;99.90;;;;;;5061192;28;20053;-62
2023/03/17 02:41:10;;;;;;;4.97;2.72;;;4.50;99.90;;;;;;5067951;28;20179;-63
2023/03/17 02:43:36;;;;;;;4.97;2.92;;;4.50;99.90;;;;;;5064776;28;20499;-61
2023/03/17 02:46:02;;;;;;;7.03;3.28;;;4.40;99.90;;;;;;5068011;28;20086;-59
2023/03/17 02:48:28;;;;;;;6.28;2.38;;;4.30;99.90;;;;;;5064566;28;20138;-61
2023/03/17 02:50:53;;;;;;;4.32;2.42;;;4.20;99.90;;;;;;5068035;28;20082;-60
2023/03/17 02:53:19;;;;;;;4.05;2.50;;;4.10;99.90;;;;;;5064000;28;20409;-61
2023/03/17 02:55:45;;;;;;;7.32;3.00;;;4.10;99.90;;;;;;5068781;28;20051;-62
2023/03/17 02:58:11;;;;;;;6.40;3.50;;;4.10;99.90;;;;;;5065067;28;20047;-63
2023/03/17 03:00:37;;;;;;;5.97;3.15;;;4.10;99.90;;;;;;5067167;28;20044;-60
2023/03/17 03:03:03;;;;;;;8.00;3.35;;;4.10;99.90;;;;;;5065401;28;20040;-63
2023/03/17 03:05:28;;;;;;;5.22;3.00;;;4.10;99.90;;;;;;5067396;28;20041;-63
2023/03/17 03:07:54;;;;;;;4.57;2.78;;;4.10;99.90;;;;;;5064172;28;20036;-61
2023/03/17 03:10:20;;;;;;;4.32;2.60;;;4.10;99.90;;;;;;5062035;28;20033;-63
2023/03/17 03:12:46;;;;;;;3.65;2.40;;;4.10;99.90;;;;;;5065990;28;20040;-62
2023/03/17 03:15:12;;;;;;;5.40;2.33;;;4.10;99.90;;;;;;5064432;28;20127;-61
2023/03/17 03:17:37;;;;;;;4.47;2.78;;;4.10;99.90;;;;;;5066380;28;20128;-60
2023/03/17 03:20:03;;;;;;;6.13;2.90;;;4.10;99.90;;;;;;5067273;28;20071;-62
2023/03/17 03:22:29;;;;;;;4.60;3.00;;;4.00;99.90;;;;;;5064520;28;20391;-62
2023/03/17 03:24:55;;;;;;;5.13;2.53;;;4.00;99.90;;;;;;5065477;28;20155;-62
2023/03/17 03:27:20;;;;;;;5.70;2.60;;;4.10;99.90;;;;;;5065812;28;20060;-61
2023/03/17 03:29:46;;;;;;;4.30;2.60;;;4.10;99.90;;;;;;5066597;28;20067;-62
2023/03/17 03:32:12;;;;;;;5.68;3.63;;;4.10;99.90;;;;;;5065135;28;20098;-60
2023/03/17 03:34:37;;;;;;;5.20;2.47;;;4.10;99.90;;;;;;5061024;28;20040;-62
2023/03/17 03:37:03;;;;;;;4.57;2.42;;;4.10;99.90;;;;;;5066285;28;20416;-62
2023/03/17 03:39:29;;;;;;;4.00;2.13;;;4.10;99.90;;;;;;5062184;28;20044;-63
2023/03/17 03:41:57;;;;;;;3.00;2.17;;;4.00;99.90;;;;;;5066088;28;20913;-62
2023/03/17 03:44:23;;;;;;;3.60;1.35;;;4.00;99.90;;;;;;5057677;28;20048;-60
2023/03/17 03:46:48;;;;;;;3.80;1.90;;;3.90;99.90;;;;;;5065376;28;20040;-62
2023/03/17 03:49:14;;;;;;;2.53;1.50;;;3.80;99.90;;;;;;5066336;28;20102;-56
2023/03/17 03:51:40;;;;;;;4.15;1.70;;;3.80;99.90;;;;;;5064833;28;20041;-59
2023/03/17 03:54:06;;;;;;;2.80;1.50;;;3.70;99.90;;;;;;5069422;28;20041;-61
2023/03/17 03:56:31;;;;;;;3.05;1.80;;;3.70;99.90;;;;;;5070320;28;20072;-61
2023/03/17 03:58:57;;;;;;;5.80;1.98;;;3.70;99.90;;;;;;5069234;28;20036;-64
2023/03/17 04:01:23;;;;;;;2.47;1.70;;;3.60;99.90;;;;;;5069820;28;20591;-64
2023/03/17 04:03:49;;;;;;;3.22;1.70;;;3.60;99.90;;;;;;5066768;28;20514;-62
2023/03/17 04:06:15;;;;;;;4.78;1.95;;;3.60;99.90;;;;;;5071274;28;20488;-63
2023/03/17 04:08:40;;;;;;;2.75;1.67;;;3.50;99.90;;;;;;5066341;28;20060;-63
2023/03/17 04:11:07;;;;;;;4.30;1.80;;;3.50;99.90;;;;;;5070879;28;20076;-62
2023/03/17 04:13:33;;;;;;;4.68;1.98;;;3.40;99.90;;;;;;5067876;28;20048;-63
2023/03/17 04:16:00;;;;;;;5.10;1.65;;;3.30;99.90;;;;;;5067610;28;20064;-63
2023/03/17 04:18:25;;;;;;;4.05;1.98;;;3.40;99.90;;;;;;5067343;28;20549;-64
2023/03/17 04:20:51;;;;;;;4.20;1.58;;;3.30;99.90;;;;;;5071067;28;20504;-63
2023/03/17 04:23:17;;;;;;;4.20;1.67;;;3.30;99.90;;;;;;5065340;28;20044;-63
2023/03/17 04:25:43;;;;;;;4.50;1.50;;;3.40;99.90;;;;;;5068574;28;20509;-63
2023/03/17 04:28:10;;;;;;;3.65;1.67;;;3.50;99.90;;;;;;5065900;28;20036;-62
2023/03/17 04:30:36;;;;;;;2.80;1.60;;;3.40;99.90;;;;;;5066930;28;20033;-64
2023/03/17 04:33:01;;;;;;;6.57;1.98;;;3.40;99.90;;;;;;5066334;28;20089;-63
2023/03/17 04:35:27;;;;;;;2.75;1.48;;;3.50;99.90;;;;;;5070196;28;20044;-62
2023/03/17 04:37:53;;;;;;;3.63;1.60;;;3.50;99.90;;;;;;5066805;28;20764;-61
2023/03/17 04:40:19;;;;;;;3.35;1.67;;;3.60;99.90;;;;;;5070127;28;20108;-63
2023/03/17 04:42:44;;;;;;;5.07;1.98;;;3.60;99.90;;;;;;5067765;28;20045;-63
2023/03/17 04:45:13;;;;;;;4.90;1.70;;;3.60;99.90;;;;;;5068739;28;20041;-62
2023/03/17 04:47:40;;;;;;;7.60;2.20;;;3.60;99.90;;;;;;5069083;28;20051;-62
2023/03/17 04:50:07;;;;;;;2.92;1.63;;;3.60;99.90;;;;;;5065014;28;20075;-64
2023/03/17 04:52:34;;;;;;;4.53;1.73;;;3.50;99.90;;;;;;5069008;28;20083;-62
2023/03/17 04:54:59;;;;;;;3.40;2.00;;;3.40;99.90;;;;;;5068787;28;20041;-64
2023/03/17 04:57:25;;;;;;;3.60;1.95;;;3.40;99.90;;;;;;5067430;28;20760;-62
2023/03/17 04:59:51;;;;;;;7.60;2.28;;;3.30;99.90;;;;;;5069257;28;20052;-63
2023/03/17 05:02:17;;;;;;;5.15;1.73;;;3.30;99.90;;;;;;5065966;28;20504;-63
2023/03/17 05:04:44;;;;;;;2.30;1.63;;;3.20;99.90;;;;;;5068875;28;20388;-62
2023/03/17 05:07:10;;;;;;;5.18;2.03;;;3.30;99.90;;;;;;5067314;28;20049;-62
2023/03/17 05:09:36;;;;;;;3.70;1.42;;;3.30;99.90;;;;;;5069564;28;20507;-62
2023/03/17 05:12:02;;;;;;;2.38;1.40;;;3.40;99.90;;;;;;5066529;28;20033;-61
2023/03/17 05:14:28;;;;;;;2.45;1.30;;;3.40;99.90;;;;;;5062736;28;20115;-63
2023/03/17 05:16:53;;;;;;;4.00;1.40;;;3.30;99.90;;;;;;5066523;28;20044;-60
2023/03/17 05:19:19;;;;;;;3.83;1.63;;;3.30;99.90;;;;;;5069176;28;20056;-62
2023/03/17 05:21:46;;;;;;;4.28;1.60;;;3.30;99.90;;;;;;5067795;28;20163;-61
2023/03/17 05:24:12;;;;;;;2.33;1.10;;;3.30;99.90;;;;;;5066976;28;20051;-63
2023/03/17 05:26:38;;;;;;;5.25;1.83;;;3.30;99.90;;;;;;5068113;28;20622;-63
2023/03/17 05:29:04;;;;;;;5.25;1.98;;;3.30;99.90;;;;;;5068866;28;20047;-64
2023/03/17 05:31:31;;;;;;;4.15;1.60;;;3.20;99.90;;;;;;5067545;28;20041;-64
2023/03/17 05:33:57;;;;;;;2.95;1.20;;;3.20;99.90;;;;;;5062297;28;20045;-64
2023/03/17 05:36:22;;;;;;;1.63;1.10;;;3.20;99.90;;;;;;5069774;28;20385;-64
2023/03/17 05:38:48;;;;;;;3.83;1.88;;;3.30;99.90;;;;;;5065880;28;20046;-64
2023/03/17 05:41:14;;;;;;;2.35;1.55;;;3.40;99.90;;;;;;5069696;28;20040;-64
2023/03/17 05:43:40;;;;;;;5.40;1.85;;;3.40;99.90;;;;;;5066337;28;20041;-63
2023/03/17 05:46:06;;;;;;;2.22;1.45;;;3.60;99.90;;;;;;5069374;28;20078;-64
2023/03/17 05:48:32;;;;;;;2.65;1.50;;;3.70;99.90;;;;;;5065860;28;20044;-64
2023/03/17 05:50:57;;;;;;;4.63;1.30;;;3.80;99.90;;;;;;5069794;28;20041;-63
2023/03/17 05:53:23;;;;;;;6.00;2.47;;;3.90;99.90;;;;;;5065878;28;20043;-63
2023/03/17 05:55:48;;;;;;;3.95;2.00;;;4.00;99.90;;;;;;5067822;28;20048;-64
2023/03/17 05:58:15;;;;;;;3.50;1.65;;;4.20;99.90;;;;;;5066746;28;20059;-64
2023/03/17 06:00:41;;;;;;;2.35;1.40;;;4.30;99.90;;;;;;5067853;28;20038;-64
2023/03/17 06:03:07;;;;;;;3.45;1.67;;;4.40;99.90;;;;;;5065985;28;20044;-64
2023/03/17 06:05:33;;;;;;;3.50;2.00;;;4.40;99.90;;;;;;5067433;28;20443;-64
2023/03/17 06:07:59;;;;;;;4.05;2.22;;;4.40;99.90;;;;;;5065064;28;20041;-63
2023/03/17 06:10:25;;;;;;;7.35;2.47;;;4.50;99.90;;;;;;5069103;28;20040;-64
2023/03/17 06:12:52;;;;;;;5.10;2.10;;;4.60;99.90;;;;;;5066014;28;20098;-64
2023/03/17 06:15:18;;;;;;;5.70;2.00;;;4.70;99.90;;;;;;5066877;28;20028;-64
2023/03/17 06:17:45;;;;;;;4.65;1.50;;;4.90;99.90;;;;;;5065427;28;20052;-63
2023/03/17 06:20:11;;;;;;;3.70;1.50;;;5.00;99.90;;;;;;5069348;28;20117;-63
2023/03/17 06:22:37;;;;;;;4.43;2.58;;;5.10;99.90;;;;;;5068552;28;20143;-62
2023/03/17 06:25:04;;;;;;;2.53;1.90;;;5.20;99.90;;;;;;5067246;28;20119;-62
2023/03/17 06:27:30;;;;;;;2.20;1.45;;;5.20;99.90;;;;;;5065821;28;20106;-64
2023/03/17 06:29:56;;;;;;;4.88;1.80;;;5.30;99.90;;;;;;5068967;28;20666;-63
2023/03/17 06:32:22;;;;;;;5.30;2.25;;;5.30;99.90;;;;;;5063132;28;20046;-65
2023/03/17 06:34:48;;;;;;;3.38;1.75;;;5.50;99.90;;;;;;5064945;28;20045;-63
2023/03/17 06:37:14;;;;;;;3.75;1.92;;;5.60;99.90;;;;;;5064234;28;20048;-63
2023/03/17 06:39:41;;;;;;;3.05;1.83;;;5.60;99.90;;;;;;5067759;28;20040;-62
2023/03/17 06:42:07;;;;;;;4.68;2.05;;;5.60;99.90;;;;;;5064109;28;20131;-61
2023/03/17 06:44:33;;;;;;;4.68;2.13;;;5.70;99.90;;;;;;5066608;28;20036;-62
2023/03/17 06:46:58;;;;;;;3.22;1.60;;;5.80;99.90;;;;;;5065603;28;20063;-62
2023/03/17 06:49:24;;;;;;;4.80;2.00;;;6.00;99.90;;;;;;5067338;28;20086;-61
2023/03/17 06:51:50;;;;;;;2.92;1.52;;;6.20;99.90;;;;;;5067689;28;20059;-62
2023/03/17 06:54:17;;;;;;;2.13;1.50;;;6.40;99.90;;;;;;5076353;28;20468;-60
2023/03/17 06:56:43;;;;;;;3.53;1.45;;;6.40;99.90;;;;;;5065935;28;20454;-63
2023/03/17 06:59:10;;;;;;;6.15;2.03;;;6.70;99.90;;;;;;5067857;28;20036;-63
2023/03/17 07:01:37;;;;;;;4.20;1.50;;;7.10;99.90;;;;;;5065837;28;20050;-64
2023/03/17 07:04:02;;;;;;;6.75;1.85;;;7.40;99.90;;;;;;5059934;28;20389;-62
2023/03/17 07:06:28;;;;;;;;;;;7.80;99.90;;;;;;5066061;28;20055;-64
2023/03/17 07:08:54;;;;;;;6.80;2.00;;;8.10;99.90;;;;;;5073897;28;19929;-64
2023/03/17 07:11:22;;;;;;;;;;;8.30;99.90;;;;;;5069284;28;20075;-65
2023/03/17 07:13:48;;;;;;;5.05;1.65;;;8.50;99.90;;;;;;5061292;28;20332;-62
2023/03/17 07:16:15;;;;;;;4.07;1.50;;;8.70;99.90;;;;;;5067801;28;20066;-64
2023/03/17 07:18:42;;;;;;;5.35;1.70;;;9.10;99.90;;;;;;5064451;28;20072;-65
2023/03/17 07:21:08;;;;;;;5.28;2.28;;;9.60;98.70;;;;;;5073177;28;20044;-64
2023/03/17 07:23:34;;;;;;;3.45;1.77;;;9.80;95.80;;;;;;5077436;28;20120;-64
2023/03/17 07:26:00;;;;;;;;;;;9.80;95.20;;;;;;5067710;28;20127;-64
2023/03/17 07:28:25;;;;;;;3.70;1.60;;;10.00;95.20;;;;;;5066546;28;19920;-63
2023/03/17 07:30:51;;;;;;;;;;;10.30;96.50;;;;;;5071059;28;20079;-64
2023/03/17 07:33:20;;;;;;;5.43;1.70;;;10.60;95.40;;;;;;5046834;28;19920;-63
2023/03/17 07:35:46;;;;;;;8.70;1.90;;;10.70;93.30;;;;;;5049533;28;20471;-63
2023/03/17 07:38:12;;;;;;;7.43;1.90;;;10.80;94.30;;;;;;5049046;28;20060;-62
2023/03/17 07:40:37;;;;;;;;;;;11.00;94.10;;;;;;5051314;28;20033;-63
2023/03/17 07:43:04;;;;;;;7.30;1.90;;;11.20;93.00;;;;;;5045863;28;20420;-63
2023/03/17 07:45:30;;;;;;;5.25;1.70;;;11.20;93.20;;;;;;5050804;28;20037;-63
2023/03/17 07:47:55;;;;;;;4.18;1.80;;;11.30;92.00;;;;;;5048773;28;20055;-63
2023/03/17 07:50:22;;;;;;;;;;;11.40;92.20;;;;;;5051464;28;20037;-62
2023/03/17 07:52:47;;;;;;;3.55;1.60;;;11.80;91.40;;;;;;5046505;28;19921;-62
2023/03/17 07:55:13;;;;;;;;;;;11.80;90.40;;;;;;5049293;28;20508;-61
2023/03/17 07:57:39;;;;;;;5.72;2.00;;;11.80;90.00;;;;;;5049525;28;20357;-63
2023/03/17 08:00:09;;;;;;;;;;;11.60;90.80;;;;;;5050224;28;20515;-64
2023/03/17 08:02:36;;;;;;;3.88;1.88;;;11.70;90.70;;;;;;5067236;28;19928;-63
2023/03/17 08:05:02;;;;;;;4.80;1.77;;;11.70;90.50;;;;;;5075274;28;20046;-61
2023/03/17 08:07:30;;;;;;;7.22;1.80;;;12.10;88.30;;;;;;5068671;28;20485;-66
2023/03/17 08:09:56;;;;;;;2.78;1.63;;;12.40;88.70;;;;;;5072280;28;20094;-62
2023/03/17 08:12:22;;;;;;;6.50;2.05;;;13.10;88.20;;;;;;5067960;28;20125;-64
2023/03/17 08:14:48;;;;;;;5.93;1.65;;;13.80;83.60;;;;;;5067590;28;20048;-60
2023/03/17 08:17:14;;;;;;;;;;;14.10;83.50;;;;;;5068152;28;20170;-63
2023/03/17 08:19:40;;;;;;;4.82;1.88;;;14.40;82.30;;;;;;5066180;28;20437;-63
2023/03/17 08:22:05;;;;;;;;;;;14.30;77.80;;;;;;5069644;28;20044;-61
2023/03/17 08:24:31;;;;;;;4.10;2.03;;;14.70;79.40;;;;;;5067850;28;20299;-63
2023/03/17 08:26:57;;;;;;;5.95;2.10;;;15.10;76.90;;;;;;5069066;28;20079;-63
2023/03/17 08:29:24;;;;;;;;;;;15.60;75.90;;;;;;5065089;28;20554;-65
2023/03/17 08:31:49;;;;;;;6.97;1.75;;;15.70;75.30;;;;;;5060357;28;19917;-60
2023/03/17 08:34:15;;;;;;;;;;;15.30;75.20;;;;;;5049233;28;20049;-62
2023/03/17 08:36:41;;;;;;;5.15;2.22;;;14.40;77.70;;;;;;5049561;28;19916;-62
2023/03/17 08:39:09;;;;;;;4.88;2.03;;;13.70;82.70;;;;;;5048680;28;20067;-62
2023/03/17 08:41:36;;;;;;;3.22;1.83;;;12.90;84.30;;;;;;5049940;28;20488;-63
2023/03/17 08:44:02;;;;;;;3.40;1.75;;;12.50;85.80;;;;;;5046596;28;20127;-63
2023/03/17 08:46:30;;;;;;;8.60;2.05;;;12.20;84.60;;;;;;5049865;28;20048;-60
2023/03/17 08:48:57;;;;;;;4.32;1.95;;;12.10;89.30;;;;;;5046845;28;20045;-61
2023/03/17 08:51:25;;;;;;;4.40;2.08;;;12.10;90.60;;;;;;5049663;28;20463;-62
2023/03/17 08:53:52;;;;;;;5.15;1.88;;;12.20;90.20;;;;;;5046079;28;20028;-61
2023/03/17 08:56:18;;;;;;;5.00;2.33;;;12.20;88.20;;;;;;5049222;28;20040;-61
2023/03/17 08:58:44;;;;;;;;;;;12.20;89.60;;;;;;5047834;28;20071;-61
2023/03/17 09:01:10;;;;;;;3.05;1.70;;;12.20;90.00;;;;;;5059063;28;19920;-60
2023/03/17 09:03:38;;;;;;;4.65;2.25;;;12.20;87.40;;;;;;5066927;28;20432;-61
2023/03/17 09:06:05;;;;;;;8.20;2.42;;;12.20;87.90;;;;;;5071083;28;20036;-62
2023/03/17 09:08:33;;;;;;;3.05;1.83;;;12.30;91.00;;;;;;5075465;28;20044;-61
2023/03/17 09:11:00;;;;;;;2.92;1.88;;;12.40;89.90;;;;;;5079461;28;20040;-59
2023/03/17 09:13:26;;;;;;;3.88;1.92;;;12.50;89.30;;;;;;5074559;28;20101;-62
2023/03/17 09:15:52;;;;;;;5.63;1.90;;;12.60;90.50;;;;;;5080026;28;20040;-62
2023/03/17 09:18:18;;;;;;;;;;;12.70;90.00;;;;;;5074581;28;20038;-62
2023/03/17 09:20:44;;;;;;;5.07;1.70;;;12.80;89.30;;;;;;5079011;28;20388;-61
2023/03/17 09:23:10;;;;;;;;;;;12.90;90.20;;;;;;5070675;28;20039;-62
2023/03/17 09:25:37;;;;;;;5.60;1.92;;;12.90;86.60;;;;;;5074490;28;19985;-62
2023/03/17 09:28:04;;;;;;;4.30;2.00;;;12.80;89.90;;;;;;5065909;28;20040;-63
2023/03/17 09:30:31;;;;;;;4.95;2.28;;;12.90;88.30;;;;;;5066924;28;20051;-63
2023/03/17 09:32:56;;;;;;;4.05;1.70;;;13.00;90.00;;;;;;5064795;28;20392;-65
2023/03/17 09:35:22;;;;;;;;;;;13.00;90.30;;;;;;5067137;28;20049;-63
2023/03/17 09:37:48;;;;;;;4.82;1.63;;;13.00;89.30;;;;;;5071357;28;19916;-63
2023/03/17 09:40:18;;;;;;;;;;;13.10;90.20;;;;;;5073301;28;20036;-63
2023/03/17 09:43:06;;;;;;;11.32;2.30;;;13.20;90.80;;;;;;5073237;28;19916;-63
2023/03/17 09:45:42;;;;;;;9.33;2.27;;;13.20;89.60;;;;;;5071252;28;20053;-63
2023/03/17 09:48:36;;;;;;;5.90;2.83;;;12.90;90.30;;;;;;5067013;28;20072;-63
2023/03/17 09:51:09;;;;;;;7.53;2.17;;;12.70;91.10;;;;;;5068584;28;21129;-63
2023/03/17 09:53:58;;;;;;;6.00;2.35;;;12.70;91.10;;;;;;5071775;28;20046;-62
2023/03/17 09:56:27;;;;;;;4.45;2.20;;;12.90;91.00;;;;;;5080098;28;20040;-63
2023/03/17 09:59:12;;;;;;;4.25;2.05;;;13.00;91.30;;;;;;5070438;28;20048;-62
2023/03/17 10:01:41;;;;;;;5.18;2.53;;;13.10;90.70;;;;;;5071064;28;20048;-63
2023/03/17 10:04:09;;;;;;;7.30;1.92;;;13.00;91.10;;;;;;5075275;28;20136;-64
2023/03/17 10:06:39;;;;;;;3.00;1.98;;;13.00;91.00;;;;;;5074884;28;20048;-65
2023/03/17 10:09:15;;;;;;;4.75;1.92;;;13.20;90.60;;;;;;5076885;28;20047;-63
2023/03/17 10:11:44;;;;;;;4.50;2.00;;;13.20;89.10;;;;;;5072644;28;20048;-61
2023/03/17 10:14:37;;;;;;;5.75;1.90;;;13.20;89.90;;;;;;5089322;28;20290;-64
2023/03/17 10:17:14;;;;;;;3.50;1.77;;;13.40;91.30;;;;;;5075738;28;20123;-63
2023/03/17 10:19:43;;;;;;;4.70;1.83;;;13.50;90.30;;;;;;5074290;28;20489;-63
2023/03/17 10:22:20;;;;;;;4.05;2.20;;;13.60;89.60;;;;;;5071435;28;20115;-64
2023/03/17 10:24:50;;;;;;;5.07;1.70;;;13.70;89.50;;;;;;5075467;28;20054;-62
2023/03/17 10:27:16;;;;;;;3.40;1.70;;;13.70;88.30;;;;;;5071082;28;20071;-63
2023/03/17 10:29:42;;;;;;;4.70;1.90;;;13.60;90.30;;;;;;5075764;28;20050;-63
2023/03/17 10:32:10;;;;;;;;;;;13.60;90.00;;;;;;5073638;28;20411;-63
2023/03/17 10:34:36;;;;;;;3.60;1.55;;;13.80;91.50;;;;;;5070643;28;20398;-62
2023/03/17 10:37:05;;;;;;;5.05;2.40;;;13.90;89.40;;;;;;5070588;28;20051;-63
2023/03/17 10:39:31;;;;;;;2.85;1.60;;;14.10;90.60;;;;;;5066883;28;20032;-62
2023/03/17 10:42:07;;;;;;;;;;;14.20;90.60;;;;;;5068613;28;20074;-62
2023/03/17 10:44:47;;;;;;;6.45;2.03;;;14.30;89.30;;;;;;5075336;28;19923;-63
2023/03/17 10:47:30;;;;;;;7.53;1.88;;;14.30;90.10;;;;;;5066185;28;20048;-63
2023/03/17 10:50:16;;;;;;;3.92;1.77;;;14.30;90.40;;;;;;5064288;28;20047;-62
2023/03/17 10:52:42;;;;;;;3.20;1.60;;;14.30;90.40;;;;;;5066730;28;20040;-64
2023/03/17 10:55:12;;;;;;;;;;;14.20;88.80;;;;;;5067275;28;20037;-61
2023/03/17 10:57:38;;;;;;;3.78;1.60;;;14.10;88.90;;;;;;5069313;28;20395;-62
2023/03/17 11:00:15;;;;;;;3.30;1.60;;;14.20;87.10;;;;;;5074397;28;20447;-64
2023/03/17 11:02:51;;;;;;;6.40;1.98;;;14.30;88.50;;;;;;5067297;28;20044;-63
2023/03/17 11:05:20;;;;;;;5.75;1.60;;;14.30;87.20;;;;;;5065706;28;20487;-62
2023/03/17 11:07:46;;;;;;;2.80;1.75;;;14.40;87.50;;;;;;5062392;28;20060;-62
2023/03/17 11:10:22;;;;;;;4.40;1.73;;;14.50;86.40;;;;;;5062119;28;20048;-63
2023/03/17 11:13:09;;;;;;;3.65;2.05;;;14.50;89.40;;;;;;5066473;28;20071;-64
2023/03/17 11:15:41;;;;;;;3.30;1.50;;;14.60;87.90;;;;;;5063482;28;20117;-62
2023/03/17 11:18:12;;;;;;;4.32;1.77;;;14.70;89.20;;;;;;5068293;28;20142;-63
2023/03/17 11:20:42;;;;;;;5.22;2.10;;;14.60;89.50;;;;;;5067466;28;20063;-60
2023/03/17 11:23:22;;;;;;;3.47;2.25;;;14.50;89.80;;;;;;5059697;28;20068;-62
2023/03/17 11:26:10;;;;;;;5.38;2.50;;;14.50;90.10;;;;;;5082191;28;20090;-63
2023/03/17 11:28:43;;;;;;;4.47;2.00;;;14.40;89.30;;;;;;5064987;28;20044;-62
2023/03/17 11:31:31;;;;;;;5.30;2.38;;;14.40;90.20;;;;;;5055584;28;20037;-63
2023/03/17 11:34:07;;;;;;;6.57;2.10;;;14.30;89.80;;;;;;5044819;28;20049;-63
2023/03/17 11:37:27;;;;;;;4.97;2.00;;;14.20;90.80;;;;;;5043442;28;20410;-62
2023/03/17 11:40:13;;;;;;;5.57;2.28;;;14.00;90.10;;;;;;4963678;28;20889;-63
2023/03/17 11:43:00;;;;;;;5.28;2.35;;;13.80;90.40;;;;;;5042817;28;20053;-63
2023/03/17 11:45:48;;;;;;;2.83;1.80;;;13.70;91.50;;;;;;5035690;28;20454;-62
2023/03/17 11:48:26;;;;;;;2.97;1.98;;;13.70;91.30;;;;;;5046866;28;20204;-62
2023/03/17 11:51:02;;;;;;;4.82;2.22;;;13.50;91.20;;;;;;5043031;28;20041;-62
2023/03/17 11:53:55;;;;;;;3.17;2.20;;;13.50;91.70;;;;;;5043779;28;20468;-63
2023/03/17 11:56:44;;;;;;;3.85;2.05;;;13.40;91.70;;;;;;5043663;28;20041;-63
2023/03/17 11:59:24;;;;;;;7.47;2.55;;;13.40;91.80;;;;;;5039332;28;20139;-62
2023/03/17 12:02:17;;;;;;;7.03;3.08;;;13.40;92.50;;;;;;5039734;28;20041;-63
2023/03/17 12:04:54;;;;;;;4.45;2.35;;;13.30;92.40;;;;;;5045347;28;20045;-63
2023/03/17 12:07:50;;;;;;;5.07;2.42;;;13.40;92.80;;;;;;5037064;28;20037;-61
2023/03/17 12:10:21;;;;;;;5.38;2.88;;;13.40;92.90;;;;;;5045004;28;20154;-63
2023/03/17 12:13:06;;;;;;;5.25;2.40;;;13.40;92.70;;;;;;5045009;28;20557;-63
2023/03/17 12:15:42;;;;;;;6.13;3.15;;;13.10;92.90;;;;;;5045455;28;20045;-62
2023/03/17 12:18:14;;;;;;;6.00;3.15;;;12.90;92.50;;;;;;5046486;28;20045;-64
2023/03/17 12:20:56;;;;;;;55.05;13.88;;;12.60;93.10;;;;;;5049690;28;20753;-63
2023/03/17 12:23:46;;;;;;;51.17;13.65;;;12.40;93.60;;;;;;5047553;28;20045;-64
2023/03/17 12:26:38;;;;;;;17.02;5.97;;;12.20;94.10;;;;;;5049527;28;20041;-63
2023/03/17 12:29:15;;;;;;;9.38;4.10;;;12.10;94.50;;;;;;5039546;28;20049;-64
2023/03/17 12:31:54;;;;;;;6.00;3.53;;;12.00;94.80;;;;;;5048213;28;20098;-63
2023/03/17 12:34:29;;;;;;;12.10;3.15;;;11.90;94.90;;;;;;5049182;28;20103;-64
2023/03/17 12:36:54;;;;;;;5.93;2.92;;;11.90;95.00;;;;;;5047091;28;20501;-62
2023/03/17 12:39:23;;;;;;;;;;;11.80;94.90;;;;;;5050478;28;20059;-64
2023/03/17 12:42:19;;;;;;;6.43;3.70;;;11.70;94.50;;;;;;5049054;28;19966;-63
2023/03/17 12:44:57;;;;;;;7.90;3.83;;;11.70;95.10;;;;;;5048853;28;20037;-62
2023/03/17 12:47:25;;;;;;;7.18;3.33;;;11.70;95.10;;;;;;5048340;28;20076;-63
2023/03/17 12:50:19;;;;;;;5.15;2.38;;;11.80;95.10;;;;;;5049677;28;20036;-62
2023/03/17 12:53:01;;;;;;;5.45;2.75;;;11.90;95.10;;;;;;5048500;28;20041;-64
2023/03/17 12:55:31;;;;;;;3.58;2.42;;;12.10;95.20;;;;;;5045367;28;20047;-64
2023/03/17 12:58:01;;;;;;;10.85;3.80;;;12.10;94.60;;;;;;5046404;28;20085;-63
2023/03/17 13:00:30;;;;;;;7.18;2.75;;;12.10;94.60;;;;;;5044522;28;20813;-63
2023/03/17 13:03:26;;;;;;;4.68;2.45;;;12.10;94.90;;;;;;5046150;28;20040;-64
2023/03/17 13:05:59;;;;;;;5.22;2.20;;;12.30;95.80;;;;;;5033534;28;20045;-63
2023/03/17 13:08:38;;;;;;;8.07;2.47;;;12.50;94.70;;;;;;5041681;28;20034;-63
2023/03/17 13:11:28;;;;;;;7.00;2.33;;;12.60;95.40;;;;;;5046889;28;20041;-62